Chisholm Hibbing Airport
KHIB : now visible

Airfield :











YOU CAN JOIN US ON...

 
LOGIN :

Register | Disclaimer

   EN    FR    IT 

 









Legend :    VFR   Marginal VFR   IFR   Intensive IFR   Very Intensive IFR
Visi :
Ceiling :
>= 8 km
>= 3000ft
5 to 8 km
1000 to 3000 ft
1500m to 5 km
500 to 1000 ft
800 to 1500m
200 to 500 ft
< 800m
< 200 ft
Symbols :   Thunderstorms  Fog  Heavy snow  Heavy precipitations  Wind > 20 kt






- Airport Elevation : 1354 ft
- IATA code : HIB


KHIB - Chisholm Hibbing

CURRENT METAR :
  • 282153Z AUTO 01003KT 10SM OVC023 M08/M13 A3010 RMK AO2 SLP221 T10781128

EXPIRED METARs :
  • 282053Z AUTO 12003KT 10SM OVC022 M08/M13 A3009 RMK AO2 SLP220 60000 T10831128 55006
  • 281953Z AUTO 15005KT 10SM OVC022 M09/M13 A3009 RMK AO2 SLP220 T10891128
  • 281853Z AUTO 35003KT 10SM OVC021 M09/M13 A3010 RMK AO2 SNE06 SLP222 P0000 T10891128

TAF KHIB
Valid from the 28 at 19:00 until the 29 at 18:00 UTC


281902Z 2819/2918 VRB03KT 6SM -SN BKN021
FM290200 00000KT P6SM -SN OVC015
FM291100 00000KT P6SM OVC018



MET'MAP, your aeronautical weather chart ! - Copyright ORBIFLY December 2007 - Disclaimer

ORBIFLY MET'MAP TEAM :

Programming & Development : Alexandra Zaïnal
Concept & original design : Baudouin d'Aumeries
Assistance for programming : Marc-Olivier Méhu
Technical & hardware support : Manuel Goepfert

Contact : metmap@orbifly.com




SOURCES & CREDITS :

   NOAA       Earth
Advisory